Brooke — WDB2356 — position and weather

sailwx.info

Track history (hours):
 
Tides and Currents Weather Stations Pressure Air Temp Water Temp Dewpoint Dewpoint Depression Visibility Wind Speed Wind Dir Waves Ship Positions

Brooke

Owner: MARTIN OPERATING PARTNERSHIP LP, La Porte, TX. More information available from US FCC via Universal Licensing System and Coast Guard Vessel Documentation Center.

Last reported at 2018-Jul-21 18:08 UTC. Time now 2018-Jul-21 18:54 UTC.
Position N 29°56' W 092°39'.

Length 20 m.

Type: Towing. MMSI: 366875030.

Date/timePositionNaut miles runAvg speedWind from/ knotsBaromVisibWave heightAir tempDewpointWater temp
2018-Jul-21 18:08N 29°56' W 092°39'0 0.0
2018-Jul-21 17:25N 29°56' W 092°39'0 0.0
2018-Jul-21 15:47N 29°56' W 092°39'0 0.0
2018-Jul-21 14:39N 29°56' W 092°39'0 0.0
2018-Jul-21 14:30N 29°56' W 092°39'0 0.1
2018-Jul-21 12:20N 29°56' W 092°39'2 5.9
2018-Jul-21 12:00N 29°55' W 092°37'5 6.0
2018-Jul-21 11:10N 29°54' W 092°31'1 5.9
2018-Jul-21 10:59N 29°54' W 092°30'3 5.9
2018-Jul-21 10:30N 29°53' W 092°26'2 4.6
2018-Jul-21 10:00N 29°53' W 092°24'2 5.0
2018-Jul-21 09:30N 29°51' W 092°22'2 4.8
2018-Jul-21 09:00N 29°50' W 092°19'2 4.0
2018-Jul-21 08:30N 29°49' W 092°17'2 3.7
2018-Jul-21 08:00N 29°48' W 092°15'0 0.0
2018-Jul-21 07:30N 29°48' W 092°15'1 1.0
2018-Jul-21 07:00N 29°48' W 092°15'2 3.2
2018-Jul-21 06:30N 29°48' W 092°13'2 3.4
2018-Jul-21 06:01N 29°47' W 092°11'1 1.0
2018-Jul-21 05:30N 29°47' W 092°11'1 2.2
2018-Jul-21 05:00N 29°47' W 092°10'3 5.6
2018-Jul-21 04:30N 29°48' W 092°07'3 6.0
2018-Jul-21 04:00N 29°49' W 092°03'3 5.9
2018-Jul-21 03:28N 29°50' W 091°60'3 5.9
2018-Jul-21 02:54N 29°51' W 091°56'  
2018-Jul-17 12:57N 30°24' W 091°13'50 1.3
2018-Jul-15 22:26N 29°51' W 091°56'2 4.4
2018-Jul-15 22:00N 29°50' W 091°59'2 4.5
2018-Jul-15 21:30N 29°49' W 092°01'2 4.5
2018-Jul-15 21:00N 29°49' W 092°03'2 4.5
2018-Jul-15 20:30N 29°48' W 092°06'2 4.4
2018-Jul-15 20:00N 29°47' W 092°08'2 4.4
2018-Jul-15 19:30N 29°47' W 092°11'2 3.4
2018-Jul-15 19:00N 29°47' W 092°12'1 2.1
2018-Jul-15 18:30N 29°48' W 092°14'2 4.5
2018-Jul-15 18:00N 29°49' W 092°16'2 3.5
2018-Jul-15 17:30N 29°49' W 092°18'1 2.8
2018-Jul-15 17:00N 29°50' W 092°19'2 4.2
2018-Jul-15 16:28N 29°51' W 092°21'2 3.9
2018-Jul-15 16:00N 29°52' W 092°23'30 2.5
2018-Jul-15 04:05N 29°56' W 092°57'3 2.8
2018-Jul-15 02:53N 29°56' W 093°01'1 2.7
2018-Jul-15 02:29N 29°56' W 093°02'1 2.9
2018-Jul-15 02:00N 29°56' W 093°04'2 3.8
2018-Jul-15 01:30N 29°56' W 093°06'2 3.7
2018-Jul-15 01:00N 29°56' W 093°08'1 2.8
2018-Jul-15 00:30N 29°56' W 093°10'2 3.2
2018-Jul-15 00:00N 29°58' W 093°11'2 3.0
2018-Jul-14 23:30N 29°59' W 093°12'1 2.7
2018-Jul-14 23:00N 29°60' W 093°13'2 3.6
2018-Jul-14 22:30N 30°01' W 093°14'1 2.3
2018-Jul-14 22:00N 30°02' W 093°15'1 2.2
2018-Jul-14 21:30N 30°03' W 093°16'1 2.4
2018-Jul-14 21:00N 30°04' W 093°16'2 3.1
2018-Jul-14 20:29N 30°05' W 093°18'0 0.6
2018-Jul-14 20:00N 30°05' W 093°18'0 0.8
2018-Jul-14 19:30N 30°06' W 093°18'1 1.0
2018-Jul-14 19:00N 30°06' W 093°18'0 0.1
2018-Jul-14 18:30N 30°06' W 093°18'0 0.0
2018-Jul-14 18:00N 30°06' W 093°18'0 0.0
2018-Jul-14 17:30N 30°06' W 093°18'0 0.0
2018-Jul-14 17:00N 30°06' W 093°18'0 0.0
2018-Jul-14 16:29N 30°06' W 093°18'0 0.0
2018-Jul-14 16:00N 30°06' W 093°18'0 0.0
2018-Jul-14 15:30N 30°06' W 093°18'0 0.0
2018-Jul-14 15:00N 30°06' W 093°18'0 0.0
2018-Jul-14 14:30N 30°06' W 093°18'1 0.8
2018-Jul-14 13:30N 30°06' W 093°19'1 2.7
2018-Jul-14 13:01N 30°05' W 093°20'2 3.0
2018-Jul-14 12:30N 30°04' W 093°21'1 2.8
2018-Jul-14 12:00N 30°04' W 093°23'1 2.5
2018-Jul-14 11:30N 30°04' W 093°24'0 0.1
2018-Jul-14 11:00N 30°04' W 093°25'0 0.0
2018-Jul-14 10:29N 30°04' W 093°25'0 0.0
2018-Jul-14 10:00N 30°04' W 093°25'0 0.0
2018-Jul-14 09:30N 30°04' W 093°25'0 0.1
2018-Jul-14 09:00N 30°04' W 093°25'0 0.0
2018-Jul-14 08:29N 30°04' W 093°25'0 0.0
2018-Jul-14 08:00N 30°04' W 093°25'0 0.0
2018-Jul-14 07:29N 30°04' W 093°25'0 0.0
2018-Jul-14 07:00N 30°04' W 093°25'0 0.0
2018-Jul-14 06:29N 30°04' W 093°25'0 0.0
2018-Jul-14 06:00N 30°04' W 093°25'0 0.0
2018-Jul-14 05:30N 30°04' W 093°25'0 0.0
2018-Jul-14 05:00N 30°04' W 093°25'0 0.0
2018-Jul-14 04:30N 30°04' W 093°25'0 0.0
2018-Jul-14 04:00N 30°04' W 093°25'0 0.0
2018-Jul-14 03:30N 30°04' W 093°25'0 0.2
2018-Jul-14 03:00N 30°04' W 093°25'1 1.8
2018-Jul-14 02:30N 30°04' W 093°26'0 0.1
2018-Jul-14 02:00N 30°04' W 093°26'0 0.0
2018-Jul-14 01:30N 30°04' W 093°26'0 0.0
2018-Jul-14 01:00N 30°04' W 093°26'0 0.0
2018-Jul-14 00:30N 30°04' W 093°26'0 0.4
2018-Jul-14 00:00N 30°04' W 093°26'0 0.1
2018-Jul-13 23:30N 30°04' W 093°26'0 0.1
2018-Jul-13 23:00N 30°04' W 093°26'0 0.0
2018-Jul-13 22:30N 30°04' W 093°26'0 0.0
2018-Jul-13 22:00N 30°04' W 093°26'0 0.0
2018-Jul-13 21:30N 30°04' W 093°26'0 0.0
2018-Jul-13 21:00N 30°04' W 093°26'0 0.0
2018-Jul-13 20:30N 30°04' W 093°26'0 0.0
2018-Jul-13 20:00N 30°04' W 093°26'0 0.0
2018-Jul-13 19:30N 30°04' W 093°26'0 0.0
2018-Jul-13 19:00N 30°04' W 093°26'0 0.0
2018-Jul-13 18:31N 30°04' W 093°26'0 0.0
2018-Jul-13 18:00N 30°04' W 093°26'0 0.0
2018-Jul-13 17:30N 30°04' W 093°26'0 0.0
2018-Jul-13 17:00N 30°04' W 093°26'0 0.0
2018-Jul-13 16:30N 30°04' W 093°26'0 0.0
2018-Jul-13 16:00N 30°04' W 093°26'0 0.0
2018-Jul-13 15:30N 30°04' W 093°26'0 0.0
2018-Jul-13 15:00N 30°04' W 093°26'1 1.5
2018-Jul-13 14:00N 30°04' W 093°28'0 0.5
2018-Jul-13 13:30N 30°04' W 093°28'0 0.0
2018-Jul-13 13:00N 30°04' W 093°28'0 0.0
2018-Jul-13 12:30N 30°04' W 093°28'0 0.0
2018-Jul-13 12:00N 30°04' W 093°28'0 0.0
2018-Jul-13 11:30N 30°04' W 093°28'0 0.0
2018-Jul-13 11:00N 30°04' W 093°28'0 0.0
2018-Jul-13 10:30N 30°04' W 093°28'0 0.0
2018-Jul-13 10:00N 30°04' W 093°28'0 0.0
2018-Jul-13 09:30N 30°04' W 093°28'0 0.0
2018-Jul-13 08:59N 30°04' W 093°28'0 0.0
2018-Jul-13 08:30N 30°04' W 093°28'0 0.0
2018-Jul-13 08:00N 30°04' W 093°28'0 0.0
2018-Jul-13 07:30N 30°04' W 093°28'0 0.0
2018-Jul-13 07:00N 30°04' W 093°28'0 0.0
2018-Jul-13 06:30N 30°04' W 093°28'0 0.0
2018-Jul-13 06:00N 30°04' W 093°28'0 0.0
2018-Jul-13 05:30N 30°04' W 093°28'0 0.0
2018-Jul-13 05:00N 30°04' W 093°28'0 0.0
2018-Jul-13 04:30N 30°04' W 093°28'0 0.0
2018-Jul-13 04:00N 30°04' W 093°28'0 0.0
2018-Jul-13 03:30N 30°04' W 093°28'0 0.0
2018-Jul-13 03:00N 30°04' W 093°28'0 0.0
2018-Jul-13 02:30N 30°04' W 093°28'0 0.0
2018-Jul-13 02:00N 30°04' W 093°28'0 0.0
2018-Jul-13 01:30N 30°04' W 093°28'0 0.0
2018-Jul-13 01:01N 30°04' W 093°28'0 0.1
2018-Jul-13 00:29N 30°04' W 093°28'0 0.0
2018-Jul-13 00:00N 30°04' W 093°28'0 0.0
2018-Jul-12 23:30N 30°04' W 093°28'0 0.0
2018-Jul-12 22:58N 30°04' W 093°28'0 0.0
2018-Jul-12 22:30N 30°04' W 093°28'0 0.0
2018-Jul-12 22:00N 30°04' W 093°28'0 0.0
2018-Jul-12 21:30N 30°04' W 093°28'0 0.1
2018-Jul-12 21:00N 30°04' W 093°28'0 0.0
2018-Jul-12 20:30N 30°04' W 093°28'0 0.1
2018-Jul-12 20:00N 30°04' W 093°28'0 0.0
2018-Jul-12 19:30N 30°04' W 093°28'0 0.0
2018-Jul-12 19:00N 30°04' W 093°28'0 0.1
2018-Jul-12 18:30N 30°04' W 093°28'0 0.0
2018-Jul-12 18:00N 30°04' W 093°28'0 0.0
2018-Jul-12 17:30N 30°04' W 093°28'0 0.3
2018-Jul-12 17:00N 30°04' W 093°28'1 1.1
2018-Jul-12 16:30N 30°04' W 093°29'0 0.0
2018-Jul-12 16:00N 30°04' W 093°29'0 0.0
2018-Jul-12 15:30N 30°04' W 093°29'0 0.0
2018-Jul-12 15:00N 30°04' W 093°29'0 0.0
2018-Jul-12 14:30N 30°04' W 093°29'0 0.0
2018-Jul-12 14:00N 30°04' W 093°29'0 0.0
2018-Jul-12 13:30N 30°04' W 093°29'0 0.0
2018-Jul-12 13:00N 30°04' W 093°29'0 0.0
2018-Jul-12 12:30N 30°04' W 093°29'0 0.1
2018-Jul-12 12:00N 30°04' W 093°29'0 0.0
2018-Jul-12 11:30N 30°04' W 093°29'0 0.0
2018-Jul-12 10:59N 30°04' W 093°29'0 0.0
2018-Jul-12 10:30N 30°04' W 093°29'2 3.5
2018-Jul-12 10:00N 30°04' W 093°31'2 3.2
2018-Jul-12 09:30N 30°04' W 093°33'2 3.2
2018-Jul-12 09:00N 30°04' W 093°35'2 4.7
2018-Jul-12 08:30N 30°04' W 093°37'2 4.4
2018-Jul-12 08:00N 30°04' W 093°40'2 4.3
2018-Jul-12 07:30N 30°03' W 093°42'2 3.2
2018-Jul-12 07:00N 30°03' W 093°44'2 4.3
2018-Jul-12 06:30N 30°01' W 093°45'3 5.1
2018-Jul-12 06:00N 29°59' W 093°48'3 5.3
2018-Jul-12 05:30N 29°58' W 093°51'2 4.7
2018-Jul-12 05:00N 29°56' W 093°52'2 4.2
2018-Jul-12 04:30N 29°55' W 093°53'2 4.1
2018-Jul-12 04:00N 29°53' W 093°55'2 3.7
2018-Jul-12 03:30N 29°52' W 093°56'2 4.0
2018-Jul-12 03:00N 29°50' W 093°57'2 4.8
2018-Jul-12 02:30N 29°49' W 093°60'3 5.0
2018-Jul-12 02:00N 29°47' W 094°02'3 5.0
2018-Jul-12 01:30N 29°45' W 094°04'2 4.9
2018-Jul-12 01:00N 29°44' W 094°06'2 4.7
2018-Jul-12 00:30N 29°42' W 094°08'2 4.5
2018-Jul-12 00:00N 29°41' W 094°10'2 4.5
2018-Jul-11 23:30N 29°40' W 094°13'2 4.5
2018-Jul-11 23:00N 29°39' W 094°15'2 4.4
2018-Jul-11 22:30N 29°38' W 094°17'2 3.7
2018-Jul-11 21:59N 29°38' W 094°19'  
Track history (hours):
 
Tides and Currents Weather Stations Pressure Air Temp Water Temp Dewpoint Dewpoint Depression Visibility Wind Speed Wind Dir Waves Ship Positions

Brooke

Owner: MARTIN OPERATING PARTNERSHIP LP, La Porte, TX. More information available from US FCC via Universal Licensing System and Coast Guard Vessel Documentation Center.

Last reported at 2018-Jul-21 18:08 UTC. Time now 2018-Jul-21 18:54 UTC.
Position N 29°56' W 092°39'.

Length 20 m.

Type: Towing. MMSI: 366875030.

Date/timePositionNaut miles runAvg speedWind from/ knotsBaromVisibWave heightAir tempDewpointWater temp
2018-Jul-21 18:08N 29°56' W 092°39'0 0.0
2018-Jul-21 17:25N 29°56' W 092°39'0 0.0
2018-Jul-21 15:47N 29°56' W 092°39'0 0.0
2018-Jul-21 14:39N 29°56' W 092°39'0 0.0
2018-Jul-21 14:30N 29°56' W 092°39'0 0.1
2018-Jul-21 12:20N 29°56' W 092°39'2 5.9
2018-Jul-21 12:00N 29°55' W 092°37'5 6.0
2018-Jul-21 11:10N 29°54' W 092°31'1 5.9
2018-Jul-21 10:59N 29°54' W 092°30'3 5.9
2018-Jul-21 10:30N 29°53' W 092°26'2 4.6
2018-Jul-21 10:00N 29°53' W 092°24'2 5.0
2018-Jul-21 09:30N 29°51' W 092°22'2 4.8
2018-Jul-21 09:00N 29°50' W 092°19'2 4.0
2018-Jul-21 08:30N 29°49' W 092°17'2 3.7
2018-Jul-21 08:00N 29°48' W 092°15'0 0.0
2018-Jul-21 07:30N 29°48' W 092°15'1 1.0
2018-Jul-21 07:00N 29°48' W 092°15'2 3.2
2018-Jul-21 06:30N 29°48' W 092°13'2 3.4
2018-Jul-21 06:01N 29°47' W 092°11'1 1.0
2018-Jul-21 05:30N 29°47' W 092°11'1 2.2
2018-Jul-21 05:00N 29°47' W 092°10'3 5.6
2018-Jul-21 04:30N 29°48' W 092°07'3 6.0
2018-Jul-21 04:00N 29°49' W 092°03'3 5.9
2018-Jul-21 03:28N 29°50' W 091°60'3 5.9
2018-Jul-21 02:54N 29°51' W 091°56'  
2018-Jul-17 12:57N 30°24' W 091°13'50 1.3
2018-Jul-15 22:26N 29°51' W 091°56'2 4.4
2018-Jul-15 22:00N 29°50' W 091°59'2 4.5
2018-Jul-15 21:30N 29°49' W 092°01'2 4.5
2018-Jul-15 21:00N 29°49' W 092°03'2 4.5
2018-Jul-15 20:30N 29°48' W 092°06'2 4.4
2018-Jul-15 20:00N 29°47' W 092°08'2 4.4
2018-Jul-15 19:30N 29°47' W 092°11'2 3.4
2018-Jul-15 19:00N 29°47' W 092°12'1 2.1
2018-Jul-15 18:30N 29°48' W 092°14'2 4.5
2018-Jul-15 18:00N 29°49' W 092°16'2 3.5
2018-Jul-15 17:30N 29°49' W 092°18'1 2.8
2018-Jul-15 17:00N 29°50' W 092°19'2 4.2
2018-Jul-15 16:28N 29°51' W 092°21'2 3.9
2018-Jul-15 16:00N 29°52' W 092°23'30 2.5
2018-Jul-15 04:05N 29°56' W 092°57'3 2.8
2018-Jul-15 02:53N 29°56' W 093°01'1 2.7
2018-Jul-15 02:29N 29°56' W 093°02'1 2.9
2018-Jul-15 02:00N 29°56' W 093°04'2 3.8
2018-Jul-15 01:30N 29°56' W 093°06'2 3.7
2018-Jul-15 01:00N 29°56' W 093°08'1 2.8
2018-Jul-15 00:30N 29°56' W 093°10'2 3.2
2018-Jul-15 00:00N 29°58' W 093°11'2 3.0
2018-Jul-14 23:30N 29°59' W 093°12'1 2.7
2018-Jul-14 23:00N 29°60' W 093°13'2 3.6
2018-Jul-14 22:30N 30°01' W 093°14'1 2.3
2018-Jul-14 22:00N 30°02' W 093°15'1 2.2
2018-Jul-14 21:30N 30°03' W 093°16'1 2.4
2018-Jul-14 21:00N 30°04' W 093°16'2 3.1
2018-Jul-14 20:29N 30°05' W 093°18'0 0.6
2018-Jul-14 20:00N 30°05' W 093°18'0 0.8
2018-Jul-14 19:30N 30°06' W 093°18'1 1.0
2018-Jul-14 19:00N 30°06' W 093°18'0 0.1
2018-Jul-14 18:30N 30°06' W 093°18'0 0.0
2018-Jul-14 18:00N 30°06' W 093°18'0 0.0
2018-Jul-14 17:30N 30°06' W 093°18'0 0.0
2018-Jul-14 17:00N 30°06' W 093°18'0 0.0
2018-Jul-14 16:29N 30°06' W 093°18'0 0.0
2018-Jul-14 16:00N 30°06' W 093°18'0 0.0
2018-Jul-14 15:30N 30°06' W 093°18'0 0.0
2018-Jul-14 15:00N 30°06' W 093°18'0 0.0
2018-Jul-14 14:30N 30°06' W 093°18'1 0.8
2018-Jul-14 13:30N 30°06' W 093°19'1 2.7
2018-Jul-14 13:01N 30°05' W 093°20'2 3.0
2018-Jul-14 12:30N 30°04' W 093°21'1 2.8
2018-Jul-14 12:00N 30°04' W 093°23'1 2.5
2018-Jul-14 11:30N 30°04' W 093°24'0 0.1
2018-Jul-14 11:00N 30°04' W 093°25'0 0.0
2018-Jul-14 10:29N 30°04' W 093°25'0 0.0
2018-Jul-14 10:00N 30°04' W 093°25'0 0.0
2018-Jul-14 09:30N 30°04' W 093°25'0 0.1
2018-Jul-14 09:00N 30°04' W 093°25'0 0.0
2018-Jul-14 08:29N 30°04' W 093°25'0 0.0
2018-Jul-14 08:00N 30°04' W 093°25'0 0.0
2018-Jul-14 07:29N 30°04' W 093°25'0 0.0
2018-Jul-14 07:00N 30°04' W 093°25'0 0.0
2018-Jul-14 06:29N 30°04' W 093°25'0 0.0
2018-Jul-14 06:00N 30°04' W 093°25'0 0.0
2018-Jul-14 05:30N 30°04' W 093°25'0 0.0
2018-Jul-14 05:00N 30°04' W 093°25'0 0.0
2018-Jul-14 04:30N 30°04' W 093°25'0 0.0
2018-Jul-14 04:00N 30°04' W 093°25'0 0.0
2018-Jul-14 03:30N 30°04' W 093°25'0 0.2
2018-Jul-14 03:00N 30°04' W 093°25'1 1.8
2018-Jul-14 02:30N 30°04' W 093°26'0 0.1
2018-Jul-14 02:00N 30°04' W 093°26'0 0.0
2018-Jul-14 01:30N 30°04' W 093°26'0 0.0
2018-Jul-14 01:00N 30°04' W 093°26'0 0.0
2018-Jul-14 00:30N 30°04' W 093°26'0 0.4
2018-Jul-14 00:00N 30°04' W 093°26'0 0.1
2018-Jul-13 23:30N 30°04' W 093°26'0 0.1
2018-Jul-13 23:00N 30°04' W 093°26'0 0.0
2018-Jul-13 22:30N 30°04' W 093°26'0 0.0
2018-Jul-13 22:00N 30°04' W 093°26'0 0.0
2018-Jul-13 21:30N 30°04' W 093°26'0 0.0
2018-Jul-13 21:00N 30°04' W 093°26'0 0.0
2018-Jul-13 20:30N 30°04' W 093°26'0 0.0
2018-Jul-13 20:00N 30°04' W 093°26'0 0.0
2018-Jul-13 19:30N 30°04' W 093°26'0 0.0
2018-Jul-13 19:00N 30°04' W 093°26'0 0.0
2018-Jul-13 18:31N 30°04' W 093°26'0 0.0
2018-Jul-13 18:00N 30°04' W 093°26'0 0.0
2018-Jul-13 17:30N 30°04' W 093°26'0 0.0
2018-Jul-13 17:00N 30°04' W 093°26'0 0.0
2018-Jul-13 16:30N 30°04' W 093°26'0 0.0
2018-Jul-13 16:00N 30°04' W 093°26'0 0.0
2018-Jul-13 15:30N 30°04' W 093°26'0 0.0
2018-Jul-13 15:00N 30°04' W 093°26'1 1.5
2018-Jul-13 14:00N 30°04' W 093°28'0 0.5
2018-Jul-13 13:30N 30°04' W 093°28'0 0.0
2018-Jul-13 13:00N 30°04' W 093°28'0 0.0
2018-Jul-13 12:30N 30°04' W 093°28'0 0.0
2018-Jul-13 12:00N 30°04' W 093°28'0 0.0
2018-Jul-13 11:30N 30°04' W 093°28'0 0.0
2018-Jul-13 11:00N 30°04' W 093°28'0 0.0
2018-Jul-13 10:30N 30°04' W 093°28'0 0.0
2018-Jul-13 10:00N 30°04' W 093°28'0 0.0
2018-Jul-13 09:30N 30°04' W 093°28'0 0.0
2018-Jul-13 08:59N 30°04' W 093°28'0 0.0
2018-Jul-13 08:30N 30°04' W 093°28'0 0.0
2018-Jul-13 08:00N 30°04' W 093°28'0 0.0
2018-Jul-13 07:30N 30°04' W 093°28'0 0.0
2018-Jul-13 07:00N 30°04' W 093°28'0 0.0
2018-Jul-13 06:30N 30°04' W 093°28'0 0.0
2018-Jul-13 06:00N 30°04' W 093°28'0 0.0
2018-Jul-13 05:30N 30°04' W 093°28'0 0.0
2018-Jul-13 05:00N 30°04' W 093°28'0 0.0
2018-Jul-13 04:30N 30°04' W 093°28'0 0.0
2018-Jul-13 04:00N 30°04' W 093°28'0 0.0
2018-Jul-13 03:30N 30°04' W 093°28'0 0.0
2018-Jul-13 03:00N 30°04' W 093°28'0 0.0
2018-Jul-13 02:30N 30°04' W 093°28'0 0.0
2018-Jul-13 02:00N 30°04' W 093°28'0 0.0
2018-Jul-13 01:30N 30°04' W 093°28'0 0.0
2018-Jul-13 01:01N 30°04' W 093°28'0 0.1
2018-Jul-13 00:29N 30°04' W 093°28'0 0.0
2018-Jul-13 00:00N 30°04' W 093°28'0 0.0
2018-Jul-12 23:30N 30°04' W 093°28'0 0.0
2018-Jul-12 22:58N 30°04' W 093°28'0 0.0
2018-Jul-12 22:30N 30°04' W 093°28'0 0.0
2018-Jul-12 22:00N 30°04' W 093°28'0 0.0
2018-Jul-12 21:30N 30°04' W 093°28'0 0.1
2018-Jul-12 21:00N 30°04' W 093°28'0 0.0
2018-Jul-12 20:30N 30°04' W 093°28'0 0.1
2018-Jul-12 20:00N 30°04' W 093°28'0 0.0
2018-Jul-12 19:30N 30°04' W 093°28'0 0.0
2018-Jul-12 19:00N 30°04' W 093°28'0 0.1
2018-Jul-12 18:30N 30°04' W 093°28'0 0.0
2018-Jul-12 18:00N 30°04' W 093°28'0 0.0
2018-Jul-12 17:30N 30°04' W 093°28'0 0.3
2018-Jul-12 17:00N 30°04' W 093°28'1 1.1
2018-Jul-12 16:30N 30°04' W 093°29'0 0.0
2018-Jul-12 16:00N 30°04' W 093°29'0 0.0
2018-Jul-12 15:30N 30°04' W 093°29'0 0.0
2018-Jul-12 15:00N 30°04' W 093°29'0 0.0
2018-Jul-12 14:30N 30°04' W 093°29'0 0.0
2018-Jul-12 14:00N 30°04' W 093°29'0 0.0
2018-Jul-12 13:30N 30°04' W 093°29'0 0.0
2018-Jul-12 13:00N 30°04' W 093°29'0 0.0
2018-Jul-12 12:30N 30°04' W 093°29'0 0.1
2018-Jul-12 12:00N 30°04' W 093°29'0 0.0
2018-Jul-12 11:30N 30°04' W 093°29'0 0.0
2018-Jul-12 10:59N 30°04' W 093°29'0 0.0
2018-Jul-12 10:30N 30°04' W 093°29'2 3.5
2018-Jul-12 10:00N 30°04' W 093°31'2 3.2
2018-Jul-12 09:30N 30°04' W 093°33'2 3.2
2018-Jul-12 09:00N 30°04' W 093°35'2 4.7
2018-Jul-12 08:30N 30°04' W 093°37'2 4.4
2018-Jul-12 08:00N 30°04' W 093°40'2 4.3
2018-Jul-12 07:30N 30°03' W 093°42'2 3.2
2018-Jul-12 07:00N 30°03' W 093°44'2 4.3
2018-Jul-12 06:30N 30°01' W 093°45'3 5.1
2018-Jul-12 06:00N 29°59' W 093°48'3 5.3
2018-Jul-12 05:30N 29°58' W 093°51'2 4.7
2018-Jul-12 05:00N 29°56' W 093°52'2 4.2
2018-Jul-12 04:30N 29°55' W 093°53'2 4.1
2018-Jul-12 04:00N 29°53' W 093°55'2 3.7
2018-Jul-12 03:30N 29°52' W 093°56'2 4.0
2018-Jul-12 03:00N 29°50' W 093°57'2 4.8
2018-Jul-12 02:30N 29°49' W 093°60'3 5.0
2018-Jul-12 02:00N 29°47' W 094°02'3 5.0
2018-Jul-12 01:30N 29°45' W 094°04'2 4.9
2018-Jul-12 01:00N 29°44' W 094°06'2 4.7
2018-Jul-12 00:30N 29°42' W 094°08'2 4.5
2018-Jul-12 00:00N 29°41' W 094°10'2 4.5
2018-Jul-11 23:30N 29°40' W 094°13'2 4.5
2018-Jul-11 23:00N 29°39' W 094°15'2 4.4
2018-Jul-11 22:30N 29°38' W 094°17'2 3.7
2018-Jul-11 21:59N 29°38' W 094°19'  

Dump ship's entire track history